TGL93W ESSA-EGPH
Flight info
| Callsign | TGL93W |
|---|---|
| Flight time | 2h 2m |
| Altitude | 36000 |
| Route | ARS N623 IBGAX DCT NIBNO DCT KLONN DCT ADN DCT NAXIL P600 PTH |
| Aircraft | B38M/M-SDE1FGHILORVWXY/HB1 |
Departure
| Time | 2026-04-23 19:15 |
|---|---|
| Airport | Stockholm-Arlanda Airport (ESSA) |
Arrival
| Time | 2026-04-23 21:17 |
|---|---|
| Airport | Edinburgh Airport (EGPH) |
| Time | Latitude | Longitude | Altitude | Speed | Heading |
|---|---|---|---|---|---|
| 2026-04-23 18:50 | 59.65433 | 17.93495 | 112 ft | 0 kts | 76° |
| 2026-04-23 19:08 | 59.65430 | 17.93473 | 111 ft | 4 kts | 76° |
| 2026-04-23 19:08 | 59.65422 | 17.93424 | 112 ft | 4 kts | 62° |
| 2026-04-23 19:08 | 59.65406 | 17.93386 | 110 ft | 4 kts | 29° |
| 2026-04-23 19:08 | 59.65386 | 17.93378 | 111 ft | 1 kts | 345° |
| 2026-04-23 19:12 | 59.65387 | 17.93378 | 114 ft | 1 kts | 345° |
| 2026-04-23 19:12 | 59.65401 | 17.93371 | 114 ft | 3 kts | 345° |
| 2026-04-23 19:12 | 59.65434 | 17.93354 | 112 ft | 6 kts | 347° |
| 2026-04-23 19:12 | 59.65482 | 17.93347 | 114 ft | 8 kts | 358° |
| 2026-04-23 19:13 | 59.65542 | 17.93328 | 113 ft | 10 kts | 346° |
| 2026-04-23 19:13 | 59.65630 | 17.93316 | 111 ft | 14 kts | 18° |
| 2026-04-23 19:13 | 59.65695 | 17.93427 | 111 ft | 11 kts | 50° |
| 2026-04-23 19:13 | 59.65745 | 17.93539 | 115 ft | 10 kts | 45° |
| 2026-04-23 19:14 | 59.65792 | 17.93633 | 118 ft | 9 kts | 45° |
| 2026-04-23 19:14 | 59.65834 | 17.93716 | 118 ft | 9 kts | 45° |
| 2026-04-23 19:14 | 59.65866 | 17.93818 | 117 ft | 8 kts | 79° |
| 2026-04-23 19:14 | 59.65879 | 17.93919 | 118 ft | 8 kts | 75° |
| 2026-04-23 19:15 | 59.65920 | 17.94237 | 125 ft | 58 kts | 76° |
| 2026-04-23 19:15 | 59.66086 | 17.95528 | 124 ft | 132 kts | 76° |
| 2026-04-23 19:15 | 59.66330 | 17.97679 | 254 ft | 180 kts | 84° |
| 2026-04-23 19:15 | 59.66446 | 18.00150 | 1147 ft | 176 kts | 83° |
| 2026-04-23 19:16 | 59.66670 | 18.02453 | 2151 ft | 174 kts | 63° |
| 2026-04-23 19:16 | 59.67203 | 18.04711 | 2726 ft | 190 kts | 50° |
| 2026-04-23 19:16 | 59.68154 | 18.06653 | 3384 ft | 198 kts | 27° |
| 2026-04-23 19:17 | 59.70754 | 18.07472 | 5332 ft | 196 kts | 343° |
| 2026-04-23 19:17 | 59.72063 | 18.06836 | 6307 ft | 200 kts | 341° |
| 2026-04-23 19:17 | 59.73443 | 18.05933 | 6944 ft | 218 kts | 340° |
| 2026-04-23 19:17 | 59.74950 | 18.04955 | 7559 ft | 238 kts | 341° |
| 2026-04-23 19:18 | 59.76513 | 18.03614 | 8243 ft | 252 kts | 323° |
| 2026-04-23 19:18 | 59.77697 | 18.01037 | 9308 ft | 256 kts | 312° |
| 2026-04-23 19:18 | 59.78842 | 17.98242 | 10086 ft | 266 kts | 312° |
| 2026-04-23 19:18 | 59.80038 | 17.95283 | 10655 ft | 284 kts | 312° |
| 2026-04-23 19:19 | 59.82654 | 17.88707 | 11631 ft | 320 kts | 312° |
| 2026-04-23 19:19 | 59.84034 | 17.85201 | 12243 ft | 331 kts | 312° |
| 2026-04-23 19:20 | 59.86880 | 17.77936 | 13911 ft | 337 kts | 312° |
| 2026-04-23 19:20 | 59.88326 | 17.74232 | 14644 ft | 339 kts | 312° |
| 2026-04-23 19:20 | 59.89777 | 17.70509 | 15386 ft | 342 kts | 313° |
| 2026-04-23 19:20 | 59.91242 | 17.66745 | 16092 ft | 345 kts | 313° |
| 2026-04-23 19:21 | 59.92717 | 17.62950 | 16791 ft | 348 kts | 313° |
| 2026-04-23 19:21 | 59.95679 | 17.55310 | 18159 ft | 353 kts | 313° |
| 2026-04-23 19:21 | 59.97184 | 17.51417 | 18754 ft | 356 kts | 313° |
| 2026-04-23 19:22 | 59.98702 | 17.47487 | 19340 ft | 358 kts | 313° |
| 2026-04-23 19:22 | 60.00225 | 17.43533 | 19860 ft | 361 kts | 313° |
| 2026-04-23 19:22 | 60.03169 | 17.35253 | 20965 ft | 375 kts | 301° |
| 2026-04-23 19:23 | 60.03877 | 17.30156 | 21598 ft | 390 kts | 283° |
| 2026-04-23 19:23 | 60.03734 | 17.24631 | 22199 ft | 409 kts | 265° |
| 2026-04-23 19:23 | 60.02728 | 17.19279 | 22792 ft | 427 kts | 248° |
| 2026-04-23 19:24 | 59.98796 | 17.09970 | 23789 ft | 441 kts | 240° |
| 2026-04-23 19:24 | 59.97254 | 17.04789 | 24179 ft | 427 kts | 257° |
| 2026-04-23 19:24 | 59.96682 | 16.93448 | 24871 ft | 414 kts | 276° |
| 2026-04-23 19:25 | 59.96394 | 16.81877 | 25728 ft | 420 kts | 274° |
| 2026-04-23 19:25 | 59.96022 | 16.70218 | 26479 ft | 426 kts | 272° |
| 2026-04-23 19:26 | 59.95630 | 16.58435 | 27156 ft | 431 kts | 272° |
| 2026-04-23 19:26 | 59.95419 | 16.52494 | 27238 ft | 434 kts | 268° |
| 2026-04-23 19:27 | 59.94975 | 16.40451 | 28092 ft | 435 kts | 272° |
| 2026-04-23 19:27 | 59.94304 | 16.22311 | 29180 ft | 443 kts | 272° |
| 2026-04-23 19:28 | 59.93834 | 16.10014 | 29908 ft | 447 kts | 272° |
| 2026-04-23 19:28 | 59.93349 | 15.97610 | 30554 ft | 449 kts | 271° |
| 2026-04-23 19:29 | 59.93102 | 15.91398 | 30925 ft | 449 kts | 271° |
| 2026-04-23 19:29 | 59.92605 | 15.79033 | 31805 ft | 446 kts | 272° |
| 2026-04-23 19:30 | 59.92103 | 15.66832 | 32677 ft | 443 kts | 272° |
| 2026-04-23 19:30 | 59.91847 | 15.60732 | 33107 ft | 441 kts | 272° |
| 2026-04-23 19:30 | 59.91331 | 15.48596 | 33956 ft | 438 kts | 272° |
| 2026-04-23 19:31 | 59.91069 | 15.42566 | 34318 ft | 437 kts | 272° |
| 2026-04-23 19:31 | 59.90804 | 15.36533 | 34644 ft | 436 kts | 272° |
| 2026-04-23 19:31 | 59.90538 | 15.30525 | 34924 ft | 435 kts | 271° |
| 2026-04-23 19:31 | 59.90269 | 15.24535 | 35286 ft | 434 kts | 271° |
| 2026-04-23 19:32 | 59.90002 | 15.18629 | 35627 ft | 433 kts | 271° |
| 2026-04-23 19:32 | 59.89730 | 15.12674 | 35927 ft | 432 kts | 271° |
| 2026-04-23 19:32 | 59.89454 | 15.06716 | 36093 ft | 433 kts | 271° |
| 2026-04-23 19:33 | 59.88896 | 14.94826 | 36086 ft | 430 kts | 271° |
| 2026-04-23 19:33 | 59.88038 | 14.77013 | 36085 ft | 431 kts | 271° |
| 2026-04-23 19:34 | 59.87452 | 14.65137 | 36083 ft | 431 kts | 271° |
| 2026-04-23 19:35 | 59.86560 | 14.47459 | 36096 ft | 429 kts | 270° |
| 2026-04-23 19:35 | 59.85950 | 14.35634 | 36105 ft | 430 kts | 270° |
| 2026-04-23 19:36 | 59.85329 | 14.23816 | 36100 ft | 430 kts | 269° |
| 2026-04-23 19:36 | 59.84698 | 14.12000 | 36097 ft | 430 kts | 269° |
| 2026-04-23 19:37 | 59.84060 | 14.00263 | 36089 ft | 430 kts | 269° |
| 2026-04-23 19:37 | 59.83408 | 13.88461 | 36071 ft | 429 kts | 268° |
| 2026-04-23 19:38 | 59.82744 | 13.76643 | 36407 ft | 429 kts | 268° |
| 2026-04-23 19:38 | 59.82410 | 13.70745 | 36687 ft | 429 kts | 268° |
| 2026-04-23 19:38 | 59.82073 | 13.64873 | 36953 ft | 428 kts | 268° |
| 2026-04-23 19:38 | 59.81734 | 13.59001 | 37248 ft | 427 kts | 268° |
| 2026-04-23 19:39 | 59.81394 | 13.53151 | 37533 ft | 426 kts | 268° |
| 2026-04-23 19:39 | 59.81052 | 13.47326 | 37819 ft | 424 kts | 268° |
| 2026-04-23 19:39 | 59.80713 | 13.41591 | 38072 ft | 423 kts | 268° |
| 2026-04-23 19:40 | 59.80019 | 13.29997 | 38074 ft | 421 kts | 268° |
| 2026-04-23 19:40 | 59.79318 | 13.18459 | 38066 ft | 420 kts | 267° |
| 2026-04-23 19:41 | 59.78611 | 13.06985 | 38092 ft | 418 kts | 267° |
| 2026-04-23 19:41 | 59.77895 | 12.95533 | 38100 ft | 418 kts | 267° |
| 2026-04-23 19:42 | 59.77169 | 12.84081 | 38102 ft | 418 kts | 267° |
| 2026-04-23 19:42 | 59.76437 | 12.72704 | 38097 ft | 418 kts | 267° |
| 2026-04-23 19:43 | 59.75691 | 12.61259 | 38088 ft | 418 kts | 266° |
| 2026-04-23 19:43 | 59.74936 | 12.49828 | 38086 ft | 418 kts | 266° |
| 2026-04-23 19:44 | 59.74168 | 12.38378 | 38090 ft | 419 kts | 266° |
| 2026-04-23 19:44 | 59.73010 | 12.27024 | 38100 ft | 421 kts | 263° |
| 2026-04-23 19:45 | 59.71846 | 12.15748 | 38106 ft | 421 kts | 263° |
| 2026-04-23 19:45 | 59.70680 | 12.04391 | 38103 ft | 421 kts | 263° |
| 2026-04-23 19:46 | 59.69506 | 11.93045 | 38090 ft | 421 kts | 263° |
| 2026-04-23 19:46 | 59.68322 | 11.81708 | 38101 ft | 420 kts | 262° |
| 2026-04-23 19:47 | 59.67136 | 11.70443 | 38095 ft | 417 kts | 262° |
| 2026-04-23 19:47 | 59.65944 | 11.59227 | 38075 ft | 417 kts | 262° |
| 2026-04-23 19:48 | 59.64747 | 11.48059 | 38113 ft | 419 kts | 262° |
| 2026-04-23 19:48 | 59.63530 | 11.36801 | 38105 ft | 418 kts | 262° |
| 2026-04-23 19:49 | 59.62304 | 11.25562 | 38112 ft | 419 kts | 262° |
| 2026-04-23 19:49 | 59.61069 | 11.14331 | 38109 ft | 419 kts | 262° |
| 2026-04-23 19:50 | 59.59822 | 11.03092 | 38108 ft | 419 kts | 261° |
| 2026-04-23 19:50 | 59.58566 | 10.91864 | 38112 ft | 419 kts | 261° |
| 2026-04-23 19:51 | 59.57308 | 10.80714 | 38101 ft | 419 kts | 261° |
| 2026-04-23 19:51 | 59.56033 | 10.69505 | 38101 ft | 419 kts | 261° |
| 2026-04-23 19:52 | 59.54747 | 10.58289 | 38097 ft | 419 kts | 261° |
| 2026-04-23 19:52 | 59.53453 | 10.47092 | 38111 ft | 419 kts | 260° |
| 2026-04-23 19:53 | 59.52152 | 10.35938 | 38104 ft | 414 kts | 260° |
| 2026-04-23 19:53 | 59.50859 | 10.24931 | 38104 ft | 413 kts | 260° |
| 2026-04-23 19:54 | 59.49564 | 10.13995 | 38105 ft | 413 kts | 259° |
| 2026-04-23 19:54 | 59.48252 | 10.03002 | 38114 ft | 413 kts | 259° |
| 2026-04-23 19:55 | 59.46931 | 9.92023 | 38109 ft | 412 kts | 259° |
| 2026-04-23 19:55 | 59.45599 | 9.81033 | 38133 ft | 413 kts | 259° |
| 2026-04-23 19:56 | 59.44261 | 9.70082 | 38141 ft | 412 kts | 258° |
| 2026-04-23 19:56 | 59.42928 | 9.59249 | 38156 ft | 410 kts | 258° |
| 2026-04-23 19:57 | 59.41576 | 9.48350 | 38164 ft | 411 kts | 258° |
| 2026-04-23 19:57 | 59.40218 | 9.37481 | 38158 ft | 410 kts | 258° |
| 2026-04-23 19:58 | 59.38848 | 9.26593 | 38164 ft | 411 kts | 258° |
| 2026-04-23 19:58 | 59.37468 | 9.15717 | 38164 ft | 411 kts | 258° |
| 2026-04-23 19:59 | 59.36090 | 9.04925 | 38178 ft | 411 kts | 258° |
| 2026-04-23 19:59 | 59.34699 | 8.94117 | 38177 ft | 408 kts | 257° |
| 2026-04-23 20:00 | 59.33301 | 8.83327 | 38175 ft | 409 kts | 257° |
| 2026-04-23 20:00 | 59.31894 | 8.72554 | 38187 ft | 408 kts | 257° |
| 2026-04-23 20:01 | 59.30477 | 8.61774 | 38180 ft | 409 kts | 257° |
| 2026-04-23 20:01 | 59.29060 | 8.51072 | 38201 ft | 409 kts | 257° |
| 2026-04-23 20:02 | 59.27624 | 8.40303 | 38204 ft | 409 kts | 257° |
| 2026-04-23 20:02 | 59.26180 | 8.29549 | 38196 ft | 408 kts | 256° |
| 2026-04-23 20:03 | 59.24731 | 8.18835 | 38217 ft | 408 kts | 256° |
| 2026-04-23 20:03 | 59.23271 | 8.08114 | 38212 ft | 408 kts | 256° |
| 2026-04-23 20:04 | 59.21814 | 7.97485 | 38229 ft | 408 kts | 256° |
| 2026-04-23 20:04 | 59.20339 | 7.86795 | 38226 ft | 408 kts | 256° |
| 2026-04-23 20:05 | 59.18854 | 7.76111 | 38221 ft | 408 kts | 256° |
| 2026-04-23 20:05 | 59.17359 | 7.65425 | 38235 ft | 410 kts | 255° |
| 2026-04-23 20:06 | 59.15855 | 7.54748 | 38237 ft | 412 kts | 255° |
| 2026-04-23 20:06 | 59.14331 | 7.44001 | 38235 ft | 412 kts | 255° |
| 2026-04-23 20:07 | 59.12797 | 7.33256 | 38255 ft | 412 kts | 255° |
| 2026-04-23 20:07 | 59.11255 | 7.22529 | 38247 ft | 412 kts | 255° |
| 2026-04-23 20:08 | 59.09717 | 7.11894 | 38278 ft | 410 kts | 255° |
| 2026-04-23 20:08 | 59.08162 | 7.01215 | 38274 ft | 411 kts | 254° |
| 2026-04-23 20:09 | 59.06584 | 6.90449 | 38292 ft | 417 kts | 254° |
| 2026-04-23 20:09 | 59.04990 | 6.79646 | 38299 ft | 416 kts | 254° |
| 2026-04-23 20:10 | 59.03657 | 6.70664 | 38299 ft | 416 kts | 253° |
| 2026-04-23 20:10 | 59.01784 | 6.58125 | 38316 ft | 416 kts | 253° |
| 2026-04-23 20:11 | 59.00162 | 6.47343 | 38315 ft | 416 kts | 253° |
| 2026-04-23 20:11 | 58.98531 | 6.36574 | 38312 ft | 416 kts | 253° |
| 2026-04-23 20:12 | 58.96902 | 6.25883 | 38320 ft | 416 kts | 253° |
| 2026-04-23 20:12 | 58.95252 | 6.15126 | 38323 ft | 416 kts | 253° |
| 2026-04-23 20:13 | 58.93595 | 6.04387 | 38345 ft | 416 kts | 253° |
| 2026-04-23 20:13 | 58.91929 | 5.93661 | 38337 ft | 416 kts | 253° |
| 2026-04-23 20:14 | 58.90252 | 5.82931 | 38336 ft | 416 kts | 253° |
| 2026-04-23 20:14 | 58.88577 | 5.72282 | 38345 ft | 417 kts | 253° |
| 2026-04-23 20:15 | 58.86882 | 5.61569 | 38326 ft | 417 kts | 253° |
| 2026-04-23 20:15 | 58.85179 | 5.50875 | 38336 ft | 416 kts | 253° |
| 2026-04-23 20:16 | 58.83468 | 5.40196 | 38340 ft | 416 kts | 253° |
| 2026-04-23 20:16 | 58.81759 | 5.29591 | 38351 ft | 416 kts | 252° |
| 2026-04-23 20:17 | 58.80030 | 5.18929 | 38346 ft | 416 kts | 252° |
| 2026-04-23 20:17 | 58.78291 | 5.08275 | 38354 ft | 416 kts | 252° |
| 2026-04-23 20:18 | 58.76544 | 4.97631 | 38354 ft | 416 kts | 252° |
| 2026-04-23 20:18 | 58.74790 | 4.87005 | 38357 ft | 416 kts | 252° |
| 2026-04-23 20:19 | 58.73038 | 4.76459 | 38382 ft | 416 kts | 252° |
| 2026-04-23 20:19 | 58.71264 | 4.65848 | 38376 ft | 417 kts | 252° |
| 2026-04-23 20:20 | 58.69483 | 4.55252 | 38373 ft | 416 kts | 252° |
| 2026-04-23 20:20 | 58.67693 | 4.44664 | 38382 ft | 416 kts | 252° |
| 2026-04-23 20:21 | 58.65892 | 4.34078 | 38382 ft | 417 kts | 252° |
| 2026-04-23 20:21 | 58.64094 | 4.23566 | 38389 ft | 418 kts | 252° |
| 2026-04-23 20:22 | 58.62273 | 4.12986 | 38393 ft | 418 kts | 252° |
| 2026-04-23 20:22 | 58.60444 | 4.02417 | 38406 ft | 418 kts | 252° |
| 2026-04-23 20:23 | 58.58606 | 3.91859 | 38411 ft | 417 kts | 251° |
| 2026-04-23 20:23 | 58.56769 | 3.81371 | 38402 ft | 418 kts | 251° |
| 2026-04-23 20:24 | 58.54914 | 3.70828 | 38410 ft | 419 kts | 251° |
| 2026-04-23 20:24 | 58.53041 | 3.60230 | 38419 ft | 421 kts | 251° |
| 2026-04-23 20:25 | 58.51159 | 3.49636 | 38417 ft | 421 kts | 251° |
| 2026-04-23 20:25 | 58.49280 | 3.39116 | 38422 ft | 421 kts | 251° |
| 2026-04-23 20:26 | 58.47382 | 3.28546 | 38422 ft | 421 kts | 251° |
| 2026-04-23 20:26 | 58.45474 | 3.17980 | 38433 ft | 421 kts | 251° |
| 2026-04-23 20:27 | 58.43560 | 3.07431 | 38416 ft | 422 kts | 251° |
| 2026-04-23 20:27 | 58.41637 | 2.96894 | 38421 ft | 423 kts | 251° |
| 2026-04-23 20:28 | 58.39694 | 2.86304 | 38437 ft | 423 kts | 251° |
| 2026-04-23 20:28 | 58.37691 | 2.75757 | 38430 ft | 423 kts | 250° |
| 2026-04-23 20:29 | 58.35705 | 2.65199 | 38434 ft | 423 kts | 250° |
| 2026-04-23 20:29 | 58.33718 | 2.54650 | 38444 ft | 423 kts | 250° |
| 2026-04-23 20:30 | 58.31738 | 2.44182 | 38431 ft | 424 kts | 251° |
| 2026-04-23 20:30 | 58.28699 | 2.28241 | 38437 ft | 428 kts | 250° |
| 2026-04-23 20:31 | 58.26663 | 2.17629 | 38439 ft | 428 kts | 250° |
| 2026-04-23 20:31 | 58.24615 | 2.07015 | 38438 ft | 428 kts | 250° |
| 2026-04-23 20:32 | 58.22572 | 1.96483 | 38446 ft | 428 kts | 250° |
| 2026-04-23 20:32 | 58.20507 | 1.85892 | 38448 ft | 428 kts | 250° |
| 2026-04-23 20:33 | 58.18425 | 1.75274 | 38449 ft | 431 kts | 250° |
| 2026-04-23 20:33 | 58.16328 | 1.64639 | 38459 ft | 430 kts | 250° |
| 2026-04-23 20:34 | 58.14237 | 1.54088 | 38458 ft | 431 kts | 250° |
| 2026-04-23 20:34 | 58.12123 | 1.43483 | 38465 ft | 431 kts | 250° |
| 2026-04-23 20:35 | 58.10002 | 1.32893 | 38466 ft | 431 kts | 250° |
| 2026-04-23 20:35 | 58.07870 | 1.22310 | 38465 ft | 431 kts | 250° |
| 2026-04-23 20:36 | 58.05722 | 1.11699 | 38476 ft | 435 kts | 250° |
| 2026-04-23 20:36 | 58.03565 | 1.01105 | 38471 ft | 435 kts | 250° |
| 2026-04-23 20:37 | 58.01390 | 0.90475 | 38470 ft | 435 kts | 250° |
| 2026-04-23 20:37 | 57.99204 | 0.79847 | 38474 ft | 435 kts | 250° |
| 2026-04-23 20:38 | 57.97009 | 0.69236 | 38477 ft | 435 kts | 250° |
| 2026-04-23 20:38 | 57.94822 | 0.58710 | 38476 ft | 435 kts | 250° |
| 2026-04-23 20:39 | 57.92605 | 0.48106 | 38476 ft | 435 kts | 250° |
| 2026-04-23 20:39 | 57.90378 | 0.37504 | 38481 ft | 437 kts | 249° |
| 2026-04-23 20:40 | 57.88135 | 0.26881 | 38486 ft | 437 kts | 249° |
| 2026-04-23 20:40 | 57.85897 | 0.16335 | 38483 ft | 437 kts | 249° |
| 2026-04-23 20:41 | 57.83634 | 0.05731 | 38481 ft | 437 kts | 249° |
| 2026-04-23 20:41 | 57.81365 | -0.04853 | 38486 ft | 437 kts | 249° |
| 2026-04-23 20:42 | 57.79088 | -0.15415 | 38479 ft | 437 kts | 249° |
| 2026-04-23 20:42 | 57.76804 | -0.25955 | 38484 ft | 437 kts | 249° |
| 2026-04-23 20:43 | 57.74526 | -0.36416 | 38481 ft | 437 kts | 249° |
| 2026-04-23 20:43 | 57.72223 | -0.46939 | 38486 ft | 437 kts | 249° |
| 2026-04-23 20:44 | 57.69911 | -0.57451 | 38487 ft | 437 kts | 249° |
| 2026-04-23 20:44 | 57.67591 | -0.67945 | 38489 ft | 437 kts | 249° |
| 2026-04-23 20:45 | 57.65277 | -0.78356 | 38479 ft | 437 kts | 249° |
| 2026-04-23 20:45 | 57.62932 | -0.88859 | 38484 ft | 440 kts | 248° |
| 2026-04-23 20:46 | 57.60567 | -0.99396 | 38485 ft | 440 kts | 248° |
| 2026-04-23 20:46 | 57.58195 | -1.09915 | 38481 ft | 440 kts | 248° |
| 2026-04-23 20:47 | 57.55828 | -1.20357 | 38478 ft | 440 kts | 248° |
| 2026-04-23 20:47 | 57.53438 | -1.30851 | 38481 ft | 440 kts | 248° |
| 2026-04-23 20:48 | 57.51039 | -1.41328 | 38481 ft | 440 kts | 248° |
| 2026-04-23 20:48 | 57.48632 | -1.51790 | 38478 ft | 440 kts | 248° |
| 2026-04-23 20:49 | 57.46234 | -1.62164 | 38484 ft | 440 kts | 248° |
| 2026-04-23 20:49 | 57.43809 | -1.72601 | 38479 ft | 440 kts | 248° |
| 2026-04-23 20:50 | 57.41379 | -1.83027 | 38479 ft | 440 kts | 248° |
| 2026-04-23 20:50 | 57.38943 | -1.93434 | 37963 ft | 439 kts | 248° |
| 2026-04-23 20:51 | 57.37720 | -1.98642 | 37190 ft | 441 kts | 248° |
| 2026-04-23 20:51 | 57.36497 | -2.03835 | 36555 ft | 439 kts | 248° |
| 2026-04-23 20:51 | 57.35291 | -2.08941 | 35917 ft | 438 kts | 248° |
| 2026-04-23 20:51 | 57.34067 | -2.14117 | 35214 ft | 439 kts | 248° |
| 2026-04-23 20:52 | 57.32839 | -2.19299 | 34450 ft | 442 kts | 248° |
| 2026-04-23 20:52 | 57.31411 | -2.24378 | 33479 ft | 449 kts | 237° |
| 2026-04-23 20:52 | 57.29309 | -2.28682 | 32586 ft | 455 kts | 221° |
| 2026-04-23 20:52 | 57.26762 | -2.32159 | 31840 ft | 455 kts | 218° |
| 2026-04-23 20:53 | 57.24197 | -2.35586 | 31090 ft | 455 kts | 217° |
| 2026-04-23 20:53 | 57.21619 | -2.38978 | 30317 ft | 455 kts | 217° |
| 2026-04-23 20:53 | 57.19082 | -2.42282 | 29628 ft | 451 kts | 216° |
| 2026-04-23 20:53 | 57.16529 | -2.45591 | 29022 ft | 446 kts | 216° |
| 2026-04-23 20:54 | 57.14008 | -2.48850 | 28414 ft | 441 kts | 216° |
| 2026-04-23 20:54 | 57.11503 | -2.52083 | 27816 ft | 437 kts | 216° |
| 2026-04-23 20:54 | 57.09025 | -2.55274 | 27220 ft | 433 kts | 216° |
| 2026-04-23 20:54 | 57.06566 | -2.58436 | 26625 ft | 430 kts | 216° |
| 2026-04-23 20:55 | 57.04122 | -2.61573 | 26042 ft | 427 kts | 216° |
| 2026-04-23 20:55 | 57.01697 | -2.64681 | 25461 ft | 425 kts | 216° |
| 2026-04-23 20:55 | 56.99308 | -2.67739 | 24897 ft | 422 kts | 216° |
| 2026-04-23 20:55 | 56.96906 | -2.70809 | 24325 ft | 420 kts | 216° |
| 2026-04-23 20:56 | 56.94510 | -2.73860 | 23638 ft | 420 kts | 216° |
| 2026-04-23 20:56 | 56.92123 | -2.76896 | 23001 ft | 417 kts | 216° |
| 2026-04-23 20:56 | 56.89744 | -2.79919 | 22460 ft | 413 kts | 216° |
| 2026-04-23 20:56 | 56.87391 | -2.82907 | 21883 ft | 410 kts | 215° |
| 2026-04-23 20:57 | 56.85065 | -2.85856 | 21358 ft | 406 kts | 215° |
| 2026-04-23 20:57 | 56.82753 | -2.88784 | 20820 ft | 403 kts | 215° |
| 2026-04-23 20:57 | 56.80455 | -2.91689 | 20286 ft | 401 kts | 215° |
| 2026-04-23 20:57 | 56.78167 | -2.94577 | 19753 ft | 399 kts | 214° |
| 2026-04-23 20:58 | 56.75889 | -2.97441 | 19173 ft | 398 kts | 214° |
| 2026-04-23 20:58 | 56.73607 | -3.00311 | 18630 ft | 397 kts | 214° |
| 2026-04-23 20:58 | 56.71342 | -3.03155 | 18062 ft | 394 kts | 214° |
| 2026-04-23 20:58 | 56.69117 | -3.05943 | 17508 ft | 392 kts | 214° |
| 2026-04-23 20:59 | 56.66882 | -3.08741 | 17029 ft | 388 kts | 214° |
| 2026-04-23 20:59 | 56.64666 | -3.11512 | 16549 ft | 385 kts | 215° |
| 2026-04-23 20:59 | 56.62468 | -3.14255 | 16061 ft | 381 kts | 215° |
| 2026-04-23 20:59 | 56.60288 | -3.16973 | 15593 ft | 379 kts | 215° |
| 2026-04-23 21:00 | 56.58123 | -3.19668 | 15120 ft | 376 kts | 215° |
| 2026-04-23 21:00 | 56.55973 | -3.22342 | 14648 ft | 373 kts | 215° |
| 2026-04-23 21:00 | 56.53839 | -3.24990 | 14174 ft | 371 kts | 215° |
| 2026-04-23 21:00 | 56.51716 | -3.27622 | 13659 ft | 368 kts | 215° |
| 2026-04-23 21:01 | 56.49608 | -3.30231 | 13193 ft | 365 kts | 215° |
| 2026-04-23 21:01 | 56.47552 | -3.32773 | 12749 ft | 361 kts | 215° |
| 2026-04-23 21:01 | 56.45488 | -3.35322 | 12316 ft | 358 kts | 215° |
| 2026-04-23 21:01 | 56.43463 | -3.37897 | 11849 ft | 354 kts | 217° |
| 2026-04-23 21:02 | 56.42146 | -3.39616 | 11696 ft | 349 kts | 216° |
| 2026-04-23 21:02 | 56.39570 | -3.42960 | 11512 ft | 333 kts | 216° |
| 2026-04-23 21:02 | 56.37719 | -3.45356 | 11360 ft | 323 kts | 216° |
| 2026-04-23 21:02 | 56.35924 | -3.47674 | 11212 ft | 314 kts | 216° |
| 2026-04-23 21:03 | 56.34171 | -3.49936 | 11044 ft | 304 kts | 216° |
| 2026-04-23 21:03 | 56.32473 | -3.52124 | 10899 ft | 296 kts | 216° |
| 2026-04-23 21:03 | 56.30846 | -3.54218 | 10759 ft | 287 kts | 216° |
| 2026-04-23 21:03 | 56.29246 | -3.56276 | 10619 ft | 279 kts | 216° |
| 2026-04-23 21:04 | 56.27692 | -3.58272 | 10457 ft | 271 kts | 216° |
| 2026-04-23 21:04 | 56.26164 | -3.60233 | 10186 ft | 268 kts | 216° |
| 2026-04-23 21:04 | 56.24647 | -3.62176 | 9852 ft | 267 kts | 216° |
| 2026-04-23 21:04 | 56.23140 | -3.64104 | 9553 ft | 265 kts | 216° |
| 2026-04-23 21:05 | 56.21647 | -3.66016 | 9260 ft | 263 kts | 216° |
| 2026-04-23 21:05 | 56.20169 | -3.67918 | 8982 ft | 260 kts | 218° |
| 2026-04-23 21:05 | 56.18942 | -3.70266 | 8668 ft | 258 kts | 233° |
| 2026-04-23 21:05 | 56.17879 | -3.72790 | 8404 ft | 256 kts | 232° |
| 2026-04-23 21:06 | 56.16799 | -3.75313 | 8137 ft | 253 kts | 229° |
| 2026-04-23 21:06 | 56.15417 | -3.77197 | 7843 ft | 252 kts | 201° |
| 2026-04-23 21:06 | 56.13688 | -3.77640 | 7536 ft | 256 kts | 173° |
| 2026-04-23 21:06 | 56.11944 | -3.76889 | 7215 ft | 260 kts | 169° |
| 2026-04-23 21:07 | 56.10139 | -3.76563 | 6860 ft | 262 kts | 178° |
| 2026-04-23 21:07 | 56.08310 | -3.76492 | 6493 ft | 264 kts | 179° |
| 2026-04-23 21:07 | 56.06471 | -3.76434 | 6121 ft | 265 kts | 179° |
| 2026-04-23 21:07 | 56.04626 | -3.76373 | 5757 ft | 266 kts | 179° |
| 2026-04-23 21:08 | 56.02795 | -3.76312 | 5368 ft | 260 kts | 179° |
| 2026-04-23 21:08 | 56.01017 | -3.76249 | 5037 ft | 251 kts | 179° |
| 2026-04-23 21:08 | 55.99327 | -3.76193 | 4727 ft | 242 kts | 179° |
| 2026-04-23 21:08 | 55.97665 | -3.76143 | 4423 ft | 235 kts | 179° |
| 2026-04-23 21:09 | 55.96046 | -3.76098 | 4141 ft | 232 kts | 179° |
| 2026-04-23 21:09 | 55.94451 | -3.76059 | 3998 ft | 224 kts | 179° |
| 2026-04-23 21:09 | 55.92938 | -3.76025 | 3981 ft | 211 kts | 179° |
| 2026-04-23 21:09 | 55.91520 | -3.75613 | 3940 ft | 206 kts | 156° |
| 2026-04-23 21:10 | 55.90264 | -3.74388 | 4048 ft | 208 kts | 149° |
| 2026-04-23 21:10 | 55.90022 | -3.74130 | 4058 ft | 208 kts | 149° |
| 2026-04-23 21:11 | 55.89521 | -3.73591 | 4057 ft | 208 kts | 149° |
| 2026-04-23 21:11 | 55.88477 | -3.72466 | 3989 ft | 208 kts | 149° |
| 2026-04-23 21:12 | 55.87246 | -3.71132 | 3960 ft | 206 kts | 149° |
| 2026-04-23 21:12 | 55.86056 | -3.69722 | 3945 ft | 206 kts | 136° |
| 2026-04-23 21:12 | 55.85316 | -3.67567 | 3774 ft | 208 kts | 105° |
| 2026-04-23 21:12 | 55.85324 | -3.65020 | 3530 ft | 207 kts | 73° |
| 2026-04-23 21:13 | 55.86032 | -3.62872 | 3291 ft | 204 kts | 52° |
| 2026-04-23 21:13 | 55.86893 | -3.60874 | 3024 ft | 203 kts | 56° |
| 2026-04-23 21:13 | 55.87664 | -3.58806 | 2760 ft | 196 kts | 59° |
| 2026-04-23 21:13 | 55.88360 | -3.56800 | 2529 ft | 184 kts | 60° |
| 2026-04-23 21:14 | 55.88978 | -3.54978 | 2330 ft | 161 kts | 60° |
| 2026-04-23 21:14 | 55.89525 | -3.53364 | 2122 ft | 142 kts | 60° |
| 2026-04-23 21:14 | 55.89858 | -3.52382 | 1947 ft | 139 kts | 60° |
| 2026-04-23 21:14 | 55.90354 | -3.50925 | 1767 ft | 137 kts | 60° |
| 2026-04-23 21:15 | 55.90843 | -3.49474 | 1576 ft | 136 kts | 60° |
| 2026-04-23 21:15 | 55.91329 | -3.48047 | 1391 ft | 134 kts | 60° |
| 2026-04-23 21:15 | 55.91803 | -3.46629 | 1201 ft | 133 kts | 61° |
| 2026-04-23 21:15 | 55.92273 | -3.45214 | 1019 ft | 132 kts | 59° |
| 2026-04-23 21:16 | 55.92910 | -3.43372 | 766 ft | 131 kts | 59° |
| 2026-04-23 21:16 | 55.93389 | -3.41988 | 582 ft | 131 kts | 58° |
| 2026-04-23 21:16 | 55.93701 | -3.41075 | 438 ft | 130 kts | 59° |
| 2026-04-23 21:16 | 55.94169 | -3.39691 | 299 ft | 131 kts | 59° |
| 2026-04-23 21:17 | 55.94640 | -3.38304 | 139 ft | 131 kts | 59° |
| 2026-04-23 21:17 | 55.95055 | -3.37085 | 115 ft | 92 kts | 59° |
| 2026-04-23 21:17 | 55.95308 | -3.36335 | 112 ft | 53 kts | 58° |
| 2026-04-23 21:17 | 55.95475 | -3.35848 | 113 ft | 29 kts | 58° |
| 2026-04-23 21:18 | 55.95566 | -3.35538 | 115 ft | 11 kts | 104° |
| 2026-04-23 21:18 | 55.95542 | -3.35461 | 116 ft | 8 kts | 133° |
| 2026-04-23 21:18 | 55.95511 | -3.35434 | 118 ft | 5 kts | 159° |
| 2026-04-23 21:18 | 55.95502 | -3.35429 | 118 ft | 0 kts | 159° |
| 2026-04-23 21:19 | 55.95500 | -3.35428 | 115 ft | 1 kts | 159° |
| 2026-04-23 21:19 | 55.95489 | -3.35420 | 117 ft | 3 kts | 159° |
| 2026-04-23 21:19 | 55.95463 | -3.35407 | 118 ft | 4 kts | 181° |
| 2026-04-23 21:19 | 55.95430 | -3.35426 | 119 ft | 6 kts | 213° |
| 2026-04-23 21:20 | 55.95400 | -3.35488 | 117 ft | 7 kts | 236° |
| 2026-04-23 21:20 | 55.95371 | -3.35580 | 119 ft | 10 kts | 241° |
| 2026-04-23 21:20 | 55.95330 | -3.35702 | 117 ft | 13 kts | 239° |
| 2026-04-23 21:20 | 55.95280 | -3.35851 | 118 ft | 15 kts | 239° |
| 2026-04-23 21:21 | 55.95230 | -3.35995 | 115 ft | 13 kts | 236° |
| 2026-04-23 21:21 | 55.95181 | -3.36146 | 116 ft | 15 kts | 239° |
| 2026-04-23 21:21 | 55.95123 | -3.36312 | 117 ft | 14 kts | 238° |
| 2026-04-23 21:21 | 55.95086 | -3.36389 | 118 ft | 6 kts | 196° |
| 2026-04-23 21:22 | 55.95038 | -3.36387 | 119 ft | 8 kts | 186° |
| 2026-04-23 21:22 | 55.94999 | -3.36444 | 117 ft | 8 kts | 236° |
| 2026-04-23 21:22 | 55.94980 | -3.36501 | 117 ft | 1 kts | 239° |
| 2026-04-23 21:22 | 55.94972 | -3.36526 | 117 ft | 4 kts | 239° |
| 2026-04-23 21:23 | 55.94953 | -3.36545 | 118 ft | 2 kts | 166° |
| 2026-04-23 21:23 | 55.94931 | -3.36523 | 117 ft | 5 kts | 149° |
| 2026-04-23 21:23 | 55.94908 | -3.36498 | 116 ft | 4 kts | 149° |
| 2026-04-23 21:23 | 55.94904 | -3.36494 | 116 ft | 0 kts | 148° |